sensor_id;sensor_type;location;lat;lon;timestamp;temperature;humidity
40323;DHT22;26030;51.164;17.100;2023-01-16T00:01:36;22.90;56.90
40323;DHT22;26030;51.164;17.100;2023-01-16T00:06:40;22.80;57.50
40323;DHT22;26030;51.164;17.100;2023-01-16T00:11:44;22.70;57.50
40323;DHT22;26030;51.164;17.100;2023-01-16T00:16:48;22.40;57.90
40323;DHT22;26030;51.164;17.100;2023-01-16T00:21:52;22.50;57.90
40323;DHT22;26030;51.164;17.100;2023-01-16T00:26:56;22.40;57.70
40323;DHT22;26030;51.164;17.100;2023-01-16T00:32:01;22.40;57.90
40323;DHT22;26030;51.164;17.100;2023-01-16T00:37:05;22.30;57.60
40323;DHT22;26030;51.164;17.100;2023-01-16T00:42:10;22.20;57.50
40323;DHT22;26030;51.164;17.100;2023-01-16T00:47:13;22.30;57.30
40323;DHT22;26030;51.164;17.100;2023-01-16T00:52:17;22.30;56.90
40323;DHT22;26030;51.164;17.100;2023-01-16T00:57:21;22.20;56.80
40323;DHT22;26030;51.164;17.100;2023-01-16T01:02:26;22.10;57.20
40323;DHT22;26030;51.164;17.100;2023-01-16T01:07:30;22.10;57.20
40323;DHT22;26030;51.164;17.100;2023-01-16T01:12:34;22.10;57.40
40323;DHT22;26030;51.164;17.100;2023-01-16T01:17:38;22.00;57.20
40323;DHT22;26030;51.164;17.100;2023-01-16T01:22:43;21.90;57.00
40323;DHT22;26030;51.164;17.100;2023-01-16T01:27:49;22.00;56.80
40323;DHT22;26030;51.164;17.100;2023-01-16T01:32:53;22.00;56.70
40323;DHT22;26030;51.164;17.100;2023-01-16T01:37:57;22.30;57.10
40323;DHT22;26030;51.164;17.100;2023-01-16T01:43:02;22.50;56.50
40323;DHT22;26030;51.164;17.100;2023-01-16T01:53:35;23.00;55.40
40323;DHT22;26030;51.164;17.100;2023-01-16T01:58:42;23.10;55.70
40323;DHT22;26030;51.164;17.100;2023-01-16T02:03:51;23.20;55.00
40323;DHT22;26030;51.164;17.100;2023-01-16T02:09:00;23.20;55.00
40323;DHT22;26030;51.164;17.100;2023-01-16T02:14:10;23.40;54.10
40323;DHT22;26030;51.164;17.100;2023-01-16T02:19:42;23.60;54.20
40323;DHT22;26030;51.164;17.100;2023-01-16T02:37:04;23.30;54.40
40323;DHT22;26030;51.164;17.100;2023-01-16T02:42:10;23.20;54.40
40323;DHT22;26030;51.164;17.100;2023-01-16T02:52:54;23.30;54.40
40323;DHT22;26030;51.164;17.100;2023-01-16T02:58:23;23.30;54.10
40323;DHT22;26030;51.164;17.100;2023-01-16T03:08:46;23.30;54.20
40323;DHT22;26030;51.164;17.100;2023-01-16T03:14:38;23.40;54.10
40323;DHT22;26030;51.164;17.100;2023-01-16T03:24:57;23.40;54.30
40323;DHT22;26030;51.164;17.100;2023-01-16T03:35:35;23.40;53.80
40323;DHT22;26030;51.164;17.100;2023-01-16T03:40:47;23.50;53.80
40323;DHT22;26030;51.164;17.100;2023-01-16T03:45:55;23.40;53.80
40323;DHT22;26030;51.164;17.100;2023-01-16T03:51:05;23.40;54.10
40323;DHT22;26030;51.164;17.100;2023-01-16T03:56:18;23.50;53.60
40323;DHT22;26030;51.164;17.100;2023-01-16T04:01:42;23.50;53.60
40323;DHT22;26030;51.164;17.100;2023-01-16T04:12:12;23.40;54.00
40323;DHT22;26030;51.164;17.100;2023-01-16T04:17:21;23.20;54.20
40323;DHT22;26030;51.164;17.100;2023-01-16T04:22:27;23.00;54.80
40323;DHT22;26030;51.164;17.100;2023-01-16T04:27:32;23.00;54.70
40323;DHT22;26030;51.164;17.100;2023-01-16T04:32:36;22.90;55.40
40323;DHT22;26030;51.164;17.100;2023-01-16T04:37:40;22.90;54.60
40323;DHT22;26030;51.164;17.100;2023-01-16T04:42:44;22.80;55.00
40323;DHT22;26030;51.164;17.100;2023-01-16T04:47:49;22.70;55.60
40323;DHT22;26030;51.164;17.100;2023-01-16T04:52:54;22.60;55.60
40323;DHT22;26030;51.164;17.100;2023-01-16T04:57:58;22.50;55.60
40323;DHT22;26030;51.164;17.100;2023-01-16T05:03:02;22.40;55.70
40323;DHT22;26030;51.164;17.100;2023-01-16T05:08:07;22.40;55.80
40323;DHT22;26030;51.164;17.100;2023-01-16T05:13:20;22.40;56.00
40323;DHT22;26030;51.164;17.100;2023-01-16T05:18:25;22.30;55.90
40323;DHT22;26030;51.164;17.100;2023-01-16T05:23:29;22.20;56.20
40323;DHT22;26030;51.164;17.100;2023-01-16T05:28:36;22.20;56.20
40323;DHT22;26030;51.164;17.100;2023-01-16T05:33:40;22.10;56.60
40323;DHT22;26030;51.164;17.100;2023-01-16T05:38:44;22.00;56.40
40323;DHT22;26030;51.164;17.100;2023-01-16T05:43:49;22.00;56.40
40323;DHT22;26030;51.164;17.100;2023-01-16T05:48:54;21.90;56.50
40323;DHT22;26030;51.164;17.100;2023-01-16T05:53:58;21.80;56.80
40323;DHT22;26030;51.164;17.100;2023-01-16T05:59:02;22.00;56.30
40323;DHT22;26030;51.164;17.100;2023-01-16T06:04:06;22.40;55.80
40323;DHT22;26030;51.164;17.100;2023-01-16T06:09:10;22.70;54.80
40323;DHT22;26030;51.164;17.100;2023-01-16T06:14:14;23.00;54.50
40323;DHT22;26030;51.164;17.100;2023-01-16T06:19:18;23.20;54.00
40323;DHT22;26030;51.164;17.100;2023-01-16T06:24:23;23.20;53.70
40323;DHT22;26030;51.164;17.100;2023-01-16T06:29:27;23.20;53.50
40323;DHT22;26030;51.164;17.100;2023-01-16T06:34:31;23.20;53.50
40323;DHT22;26030;51.164;17.100;2023-01-16T06:39:38;23.20;53.50
40323;DHT22;26030;51.164;17.100;2023-01-16T06:44:42;23.20;53.40
40323;DHT22;26030;51.164;17.100;2023-01-16T06:49:46;23.30;53.50
40323;DHT22;26030;51.164;17.100;2023-01-16T06:54:50;23.40;53.40
40323;DHT22;26030;51.164;17.100;2023-01-16T06:59:54;23.40;53.70
40323;DHT22;26030;51.164;17.100;2023-01-16T07:04:58;23.30;53.70
40323;DHT22;26030;51.164;17.100;2023-01-16T07:10:02;23.30;54.00
40323;DHT22;26030;51.164;17.100;2023-01-16T07:15:08;23.30;54.30
40323;DHT22;26030;51.164;17.100;2023-01-16T07:20:34;23.40;53.60
40323;DHT22;26030;51.164;17.100;2023-01-16T07:25:57;23.40;54.30
40323;DHT22;26030;51.164;17.100;2023-01-16T07:31:05;23.30;54.50
40323;DHT22;26030;51.164;17.100;2023-01-16T07:36:10;23.50;54.40
40323;DHT22;26030;51.164;17.100;2023-01-16T07:41:14;23.50;54.50
40323;DHT22;26030;51.164;17.100;2023-01-16T07:46:18;23.50;54.60
40323;DHT22;26030;51.164;17.100;2023-01-16T07:51:22;23.40;55.00
40323;DHT22;26030;51.164;17.100;2023-01-16T07:56:27;23.30;54.70
40323;DHT22;26030;51.164;17.100;2023-01-16T08:01:31;23.10;54.80
40323;DHT22;26030;51.164;17.100;2023-01-16T08:06:35;23.00;55.10
40323;DHT22;26030;51.164;17.100;2023-01-16T08:11:39;22.80;55.20
40323;DHT22;26030;51.164;17.100;2023-01-16T08:16:43;22.60;54.50
40323;DHT22;26030;51.164;17.100;2023-01-16T08:21:47;22.60;54.20
40323;DHT22;26030;51.164;17.100;2023-01-16T08:26:52;22.60;54.20
40323;DHT22;26030;51.164;17.100;2023-01-16T08:31:56;22.50;54.70
40323;DHT22;26030;51.164;17.100;2023-01-16T08:37:00;22.40;54.40
40323;DHT22;26030;51.164;17.100;2023-01-16T08:42:06;22.40;54.30
40323;DHT22;26030;51.164;17.100;2023-01-16T08:47:28;22.50;53.70
40323;DHT22;26030;51.164;17.100;2023-01-16T08:52:51;22.50;53.80
40323;DHT22;26030;51.164;17.100;2023-01-16T08:57:55;22.30;53.90
40323;DHT22;26030;51.164;17.100;2023-01-16T09:03:03;22.30;54.00
40323;DHT22;26030;51.164;17.100;2023-01-16T09:08:07;22.30;54.10
40323;DHT22;26030;51.164;17.100;2023-01-16T09:13:11;22.30;54.10
40323;DHT22;26030;51.164;17.100;2023-01-16T09:18:34;22.20;54.10
40323;DHT22;26030;51.164;17.100;2023-01-16T09:23:39;22.30;54.00
40323;DHT22;26030;51.164;17.100;2023-01-16T09:28:43;22.20;54.00
40323;DHT22;26030;51.164;17.100;2023-01-16T09:33:47;22.30;53.90
40323;DHT22;26030;51.164;17.100;2023-01-16T09:38:53;22.20;53.80
40323;DHT22;26030;51.164;17.100;2023-01-16T09:43:57;22.20;54.10
40323;DHT22;26030;51.164;17.100;2023-01-16T09:49:15;22.20;53.70
40323;DHT22;26030;51.164;17.100;2023-01-16T09:54:24;22.10;54.10
40323;DHT22;26030;51.164;17.100;2023-01-16T10:00:02;22.10;55.00
40323;DHT22;26030;51.164;17.100;2023-01-16T10:05:12;22.00;55.90
40323;DHT22;26030;51.164;17.100;2023-01-16T10:21:34;22.00;57.20
40323;DHT22;26030;51.164;17.100;2023-01-16T10:26:57;22.10;58.10
40323;DHT22;26030;51.164;17.100;2023-01-16T10:32:49;22.00;58.00
40323;DHT22;26030;51.164;17.100;2023-01-16T10:37:32;22.00;58.40
40323;DHT22;26030;51.164;17.100;2023-01-16T10:42:38;22.00;58.50
40323;DHT22;26030;51.164;17.100;2023-01-16T10:48:04;22.00;59.10
40323;DHT22;26030;51.164;17.100;2023-01-16T10:53:34;22.00;58.90
40323;DHT22;26030;51.164;17.100;2023-01-16T10:58:39;22.00;59.10
40323;DHT22;26030;51.164;17.100;2023-01-16T11:04:00;22.00;59.10
40323;DHT22;26030;51.164;17.100;2023-01-16T11:09:06;22.00;59.50
40323;DHT22;26030;51.164;17.100;2023-01-16T11:19:58;22.00;59.90
40323;DHT22;26030;51.164;17.100;2023-01-16T11:25:02;22.00;60.20
40323;DHT22;26030;51.164;17.100;2023-01-16T11:30:14;22.10;60.20
40323;DHT22;26030;51.164;17.100;2023-01-16T11:35:29;22.10;60.20
40323;DHT22;26030;51.164;17.100;2023-01-16T11:40:36;22.10;60.30
40323;DHT22;26030;51.164;17.100;2023-01-16T11:45:47;22.10;60.20
40323;DHT22;26030;51.164;17.100;2023-01-16T11:51:14;22.30;59.80
40323;DHT22;26030;51.164;17.100;2023-01-16T12:07:26;22.20;60.50
40323;DHT22;26030;51.164;17.100;2023-01-16T12:12:41;22.10;62.00
40323;DHT22;26030;51.164;17.100;2023-01-16T12:23:28;22.00;63.10
40323;DHT22;26030;51.164;17.100;2023-01-16T12:34:28;22.10;63.40
40323;DHT22;26030;51.164;17.100;2023-01-16T12:50:41;22.10;63.90
40323;DHT22;26030;51.164;17.100;2023-01-16T13:01:43;22.00;64.30
40323;DHT22;26030;51.164;17.100;2023-01-16T13:06:52;22.10;65.10
40323;DHT22;26030;51.164;17.100;2023-01-16T13:12:22;22.10;66.80
40323;DHT22;26030;51.164;17.100;2023-01-16T13:23:25;22.10;66.30
40323;DHT22;26030;51.164;17.100;2023-01-16T13:34:01;22.00;66.60
40323;DHT22;26030;51.164;17.100;2023-01-16T13:44:46;21.90;66.30
40323;DHT22;26030;51.164;17.100;2023-01-16T13:55:36;21.80;66.30
40323;DHT22;26030;51.164;17.100;2023-01-16T14:00:44;21.90;65.10
40323;DHT22;26030;51.164;17.100;2023-01-16T14:05:52;22.00;65.00
40323;DHT22;26030;51.164;17.100;2023-01-16T14:11:27;21.90;65.10
40323;DHT22;26030;51.164;17.100;2023-01-16T14:16:37;21.80;65.00
40323;DHT22;26030;51.164;17.100;2023-01-16T14:21:43;21.90;64.50
40323;DHT22;26030;51.164;17.100;2023-01-16T14:27:09;22.00;63.80
40323;DHT22;26030;51.164;17.100;2023-01-16T14:32:16;21.80;64.40
40323;DHT22;26030;51.164;17.100;2023-01-16T14:48:11;21.60;65.00
40323;DHT22;26030;51.164;17.100;2023-01-16T14:53:34;21.50;65.10
40323;DHT22;26030;51.164;17.100;2023-01-16T14:59:04;21.50;65.30
40323;DHT22;26030;51.164;17.100;2023-01-16T15:04:12;21.50;65.80
40323;DHT22;26030;51.164;17.100;2023-01-16T15:09:19;21.90;64.60
40323;DHT22;26030;51.164;17.100;2023-01-16T15:14:24;22.10;63.70
40323;DHT22;26030;51.164;17.100;2023-01-16T15:19:36;22.30;63.40
40323;DHT22;26030;51.164;17.100;2023-01-16T15:25:04;22.50;63.10
40323;DHT22;26030;51.164;17.100;2023-01-16T15:30:18;22.50;64.30
40323;DHT22;26030;51.164;17.100;2023-01-16T15:35:22;22.60;63.80
40323;DHT22;26030;51.164;17.100;2023-01-16T15:40:28;22.60;64.00
40323;DHT22;26030;51.164;17.100;2023-01-16T15:45:33;22.70;63.50
40323;DHT22;26030;51.164;17.100;2023-01-16T15:50:59;22.70;63.70
40323;DHT22;26030;51.164;17.100;2023-01-16T15:56:05;22.70;63.20
40323;DHT22;26030;51.164;17.100;2023-01-16T16:01:25;22.70;62.50
40323;DHT22;26030;51.164;17.100;2023-01-16T16:06:35;22.80;61.50
40323;DHT22;26030;51.164;17.100;2023-01-16T16:11:42;22.90;61.40
40323;DHT22;26030;51.164;17.100;2023-01-16T16:17:13;23.00;61.20
40323;DHT22;26030;51.164;17.100;2023-01-16T16:22:41;23.10;61.20
40323;DHT22;26030;51.164;17.100;2023-01-16T16:27:51;23.20;61.00
40323;DHT22;26030;51.164;17.100;2023-01-16T16:32:55;23.30;60.60
40323;DHT22;26030;51.164;17.100;2023-01-16T16:38:00;23.30;60.20
40323;DHT22;26030;51.164;17.100;2023-01-16T16:43:05;23.30;60.40
40323;DHT22;26030;51.164;17.100;2023-01-16T16:53:26;23.30;61.00
40323;DHT22;26030;51.164;17.100;2023-01-16T16:58:30;23.20;61.00
40323;DHT22;26030;51.164;17.100;2023-01-16T17:03:34;23.30;60.80
40323;DHT22;26030;51.164;17.100;2023-01-16T17:08:39;23.30;60.10
40323;DHT22;26030;51.164;17.100;2023-01-16T17:13:43;23.20;60.40
40323;DHT22;26030;51.164;17.100;2023-01-16T17:18:47;23.10;60.90
40323;DHT22;26030;51.164;17.100;2023-01-16T17:23:55;22.90;62.00
40323;DHT22;26030;51.164;17.100;2023-01-16T17:29:01;22.80;62.30
40323;DHT22;26030;51.164;17.100;2023-01-16T17:34:05;22.70;62.40
40323;DHT22;26030;51.164;17.100;2023-01-16T17:39:16;22.70;62.10
40323;DHT22;26030;51.164;17.100;2023-01-16T17:44:22;22.70;62.20
40323;DHT22;26030;51.164;17.100;2023-01-16T17:49:47;22.70;62.40
40323;DHT22;26030;51.164;17.100;2023-01-16T17:55:10;22.70;62.20
40323;DHT22;26030;51.164;17.100;2023-01-16T18:00:34;22.70;62.50
40323;DHT22;26030;51.164;17.100;2023-01-16T18:05:40;22.50;62.60
40323;DHT22;26030;51.164;17.100;2023-01-16T18:10:44;22.50;62.70
40323;DHT22;26030;51.164;17.100;2023-01-16T18:15:51;22.40;63.00
40323;DHT22;26030;51.164;17.100;2023-01-16T18:21:26;22.20;63.60
40323;DHT22;26030;51.164;17.100;2023-01-16T18:26:54;22.10;63.60
40323;DHT22;26030;51.164;17.100;2023-01-16T18:32:14;22.20;63.70
40323;DHT22;26030;51.164;17.100;2023-01-16T18:42:39;22.00;63.70
40323;DHT22;26030;51.164;17.100;2023-01-16T18:48:03;22.00;64.40
40323;DHT22;26030;51.164;17.100;2023-01-16T18:58:56;21.90;63.60
40323;DHT22;26030;51.164;17.100;2023-01-16T19:04:21;21.80;63.60
40323;DHT22;26030;51.164;17.100;2023-01-16T19:09:28;21.90;62.00
40323;DHT22;26030;51.164;17.100;2023-01-16T19:14:36;21.90;62.40
40323;DHT22;26030;51.164;17.100;2023-01-16T19:19:44;21.80;62.00
40323;DHT22;26030;51.164;17.100;2023-01-16T19:24:50;21.80;62.00
40323;DHT22;26030;51.164;17.100;2023-01-16T19:29:56;21.70;61.60
40323;DHT22;26030;51.164;17.100;2023-01-16T19:35:02;21.80;61.80
40323;DHT22;26030;51.164;17.100;2023-01-16T19:40:09;21.70;62.60
40323;DHT22;26030;51.164;17.100;2023-01-16T19:45:16;21.70;62.60
40323;DHT22;26030;51.164;17.100;2023-01-16T19:50:40;21.80;61.40
40323;DHT22;26030;51.164;17.100;2023-01-16T19:55:46;21.70;63.50
40323;DHT22;26030;51.164;17.100;2023-01-16T20:00:52;21.70;63.80
40323;DHT22;26030;51.164;17.100;2023-01-16T20:06:07;21.70;64.10
40323;DHT22;26030;51.164;17.100;2023-01-16T20:11:15;21.50;64.10
40323;DHT22;26030;51.164;17.100;2023-01-16T20:16:20;21.60;63.80
40323;DHT22;26030;51.164;17.100;2023-01-16T20:21:27;21.50;63.60
40323;DHT22;26030;51.164;17.100;2023-01-16T20:26:33;21.50;63.80
40323;DHT22;26030;51.164;17.100;2023-01-16T20:31:40;21.50;64.80
40323;DHT22;26030;51.164;17.100;2023-01-16T20:36:45;22.10;63.40
40323;DHT22;26030;51.164;17.100;2023-01-16T20:41:54;22.50;62.70
40323;DHT22;26030;51.164;17.100;2023-01-16T20:47:18;22.70;62.40
40323;DHT22;26030;51.164;17.100;2023-01-16T20:52:25;22.90;61.70
40323;DHT22;26030;51.164;17.100;2023-01-16T20:57:30;23.00;61.00
40323;DHT22;26030;51.164;17.100;2023-01-16T21:02:36;22.80;61.30
40323;DHT22;26030;51.164;17.100;2023-01-16T21:07:42;22.80;61.80
40323;DHT22;26030;51.164;17.100;2023-01-16T21:12:47;22.70;61.60
40323;DHT22;26030;51.164;17.100;2023-01-16T21:18:10;22.80;65.10
40323;DHT22;26030;51.164;17.100;2023-01-16T21:23:34;22.90;64.50
40323;DHT22;26030;51.164;17.100;2023-01-16T21:28:39;22.80;64.20
40323;DHT22;26030;51.164;17.100;2023-01-16T21:33:44;22.90;63.00
40323;DHT22;26030;51.164;17.100;2023-01-16T21:38:48;22.90;64.00
40323;DHT22;26030;51.164;17.100;2023-01-16T21:43:52;23.00;63.40
40323;DHT22;26030;51.164;17.100;2023-01-16T21:49:14;23.00;63.10
40323;DHT22;26030;51.164;17.100;2023-01-16T21:54:20;23.10;62.20
40323;DHT22;26030;51.164;17.100;2023-01-16T21:59:24;23.20;61.10
40323;DHT22;26030;51.164;17.100;2023-01-16T22:04:28;23.20;61.40
40323;DHT22;26030;51.164;17.100;2023-01-16T22:09:32;23.30;61.00
40323;DHT22;26030;51.164;17.100;2023-01-16T22:14:36;23.30;61.10
40323;DHT22;26030;51.164;17.100;2023-01-16T22:19:59;23.50;63.80
40323;DHT22;26030;51.164;17.100;2023-01-16T22:25:23;23.40;63.90
40323;DHT22;26030;51.164;17.100;2023-01-16T22:30:32;23.40;64.00
40323;DHT22;26030;51.164;17.100;2023-01-16T22:35:37;23.30;63.90
40323;DHT22;26030;51.164;17.100;2023-01-16T22:40:41;23.20;64.30
40323;DHT22;26030;51.164;17.100;2023-01-16T22:45:46;23.20;64.30
40323;DHT22;26030;51.164;17.100;2023-01-16T22:51:08;23.20;64.30
40323;DHT22;26030;51.164;17.100;2023-01-16T22:56:14;23.10;64.60
40323;DHT22;26030;51.164;17.100;2023-01-16T23:01:19;23.10;64.20
40323;DHT22;26030;51.164;17.100;2023-01-16T23:06:26;23.10;64.30
40323;DHT22;26030;51.164;17.100;2023-01-16T23:11:34;23.10;64.30
40323;DHT22;26030;51.164;17.100;2023-01-16T23:16:40;23.00;64.20
40323;DHT22;26030;51.164;17.100;2023-01-16T23:21:45;23.00;64.30
40323;DHT22;26030;51.164;17.100;2023-01-16T23:26:50;22.90;64.50
40323;DHT22;26030;51.164;17.100;2023-01-16T23:31:55;22.90;64.60
40323;DHT22;26030;51.164;17.100;2023-01-16T23:36:59;22.90;65.10
40323;DHT22;26030;51.164;17.100;2023-01-16T23:42:03;22.80;64.80
40323;DHT22;26030;51.164;17.100;2023-01-16T23:47:29;22.80;64.60
40323;DHT22;26030;51.164;17.100;2023-01-16T23:52:33;22.60;64.50
40323;DHT22;26030;51.164;17.100;2023-01-16T23:57:38;22.60;64.50
